sensor_id;sensor_type;location;lat;lon;timestamp;temperature;humidity
55121;DHT22;41019;48.512;9.036;2023-10-19T00:02:13;11.70;99.90
55121;DHT22;41019;48.512;9.036;2023-10-19T00:04:41;11.80;99.90
55121;DHT22;41019;48.512;9.036;2023-10-19T00:07:07;11.80;99.90
55121;DHT22;41019;48.512;9.036;2023-10-19T00:09:34;11.80;99.90
55121;DHT22;41019;48.512;9.036;2023-10-19T00:12:04;11.80;99.90
55121;DHT22;41019;48.512;9.036;2023-10-19T00:14:32;11.80;99.90
55121;DHT22;41019;48.512;9.036;2023-10-19T00:16:58;11.80;99.90
55121;DHT22;41019;48.512;9.036;2023-10-19T00:19:33;11.80;99.90
55121;DHT22;41019;48.512;9.036;2023-10-19T00:22:05;11.80;99.90
55121;DHT22;41019;48.512;9.036;2023-10-19T00:24:41;11.80;99.90
55121;DHT22;41019;48.512;9.036;2023-10-19T00:27:07;11.90;99.90
55121;DHT22;41019;48.512;9.036;2023-10-19T00:29:43;11.90;99.90
55121;DHT22;41019;48.512;9.036;2023-10-19T00:32:15;11.90;99.90
55121;DHT22;41019;48.512;9.036;2023-10-19T00:34:41;11.90;99.90
55121;DHT22;41019;48.512;9.036;2023-10-19T00:37:16;11.90;99.90
55121;DHT22;41019;48.512;9.036;2023-10-19T00:39:45;11.90;99.90
55121;DHT22;41019;48.512;9.036;2023-10-19T00:42:19;12.00;99.90
55121;DHT22;41019;48.512;9.036;2023-10-19T00:44:50;12.00;99.90
55121;DHT22;41019;48.512;9.036;2023-10-19T00:47:16;12.00;99.90
55121;DHT22;41019;48.512;9.036;2023-10-19T00:49:46;12.00;99.90
55121;DHT22;41019;48.512;9.036;2023-10-19T00:52:14;12.00;99.90
55121;DHT22;41019;48.512;9.036;2023-10-19T00:54:50;12.00;99.90
55121;DHT22;41019;48.512;9.036;2023-10-19T00:57:19;12.00;99.90
55121;DHT22;41019;48.512;9.036;2023-10-19T01:00:07;12.00;99.90
55121;DHT22;41019;48.512;9.036;2023-10-19T01:02:48;12.00;99.90
55121;DHT22;41019;48.512;9.036;2023-10-19T01:05:17;12.00;99.90
55121;DHT22;41019;48.512;9.036;2023-10-19T01:07:47;12.00;99.90
55121;DHT22;41019;48.512;9.036;2023-10-19T01:10:23;12.00;99.90
55121;DHT22;41019;48.512;9.036;2023-10-19T01:12:49;12.00;99.90
55121;DHT22;41019;48.512;9.036;2023-10-19T01:15:21;12.10;99.90
55121;DHT22;41019;48.512;9.036;2023-10-19T01:17:55;12.10;99.90
55121;DHT22;41019;48.512;9.036;2023-10-19T01:20:27;12.10;99.90
55121;DHT22;41019;48.512;9.036;2023-10-19T01:23:07;12.10;99.90
55121;DHT22;41019;48.512;9.036;2023-10-19T01:28:16;12.10;99.90
55121;DHT22;41019;48.512;9.036;2023-10-19T01:30:45;12.10;99.90
55121;DHT22;41019;48.512;9.036;2023-10-19T01:33:17;12.10;99.90
55121;DHT22;41019;48.512;9.036;2023-10-19T01:35:48;12.10;99.90
55121;DHT22;41019;48.512;9.036;2023-10-19T01:38:32;12.10;99.90
55121;DHT22;41019;48.512;9.036;2023-10-19T01:41:00;12.10;99.90
55121;DHT22;41019;48.512;9.036;2023-10-19T01:43:30;12.10;99.90
55121;DHT22;41019;48.512;9.036;2023-10-19T01:45:58;12.10;99.90
55121;DHT22;41019;48.512;9.036;2023-10-19T01:48:29;12.10;99.90
55121;DHT22;41019;48.512;9.036;2023-10-19T01:51:05;12.10;99.90
55121;DHT22;41019;48.512;9.036;2023-10-19T01:53:34;12.10;99.90
55121;DHT22;41019;48.512;9.036;2023-10-19T01:56:13;12.10;99.90
55121;DHT22;41019;48.512;9.036;2023-10-19T01:58:41;12.10;99.90
55121;DHT22;41019;48.512;9.036;2023-10-19T02:01:08;12.10;99.90
55121;DHT22;41019;48.512;9.036;2023-10-19T02:03:45;12.10;99.90
55121;DHT22;41019;48.512;9.036;2023-10-19T02:06:13;12.10;99.90
55121;DHT22;41019;48.512;9.036;2023-10-19T02:08:58;12.10;99.90
55121;DHT22;41019;48.512;9.036;2023-10-19T02:11:27;12.10;99.90
55121;DHT22;41019;48.512;9.036;2023-10-19T02:13:56;12.10;99.90
55121;DHT22;41019;48.512;9.036;2023-10-19T02:16:27;12.10;99.90
55121;DHT22;41019;48.512;9.036;2023-10-19T02:18:55;12.00;99.90
55121;DHT22;41019;48.512;9.036;2023-10-19T02:21:22;12.10;99.90
55121;DHT22;41019;48.512;9.036;2023-10-19T02:23:49;12.10;99.90
55121;DHT22;41019;48.512;9.036;2023-10-19T02:26:22;12.00;99.90
55121;DHT22;41019;48.512;9.036;2023-10-19T02:28:54;12.00;99.90
55121;DHT22;41019;48.512;9.036;2023-10-19T02:31:23;12.00;99.90
55121;DHT22;41019;48.512;9.036;2023-10-19T02:33:51;12.00;99.90
55121;DHT22;41019;48.512;9.036;2023-10-19T02:36:18;11.90;99.90
55121;DHT22;41019;48.512;9.036;2023-10-19T02:38:48;11.90;99.90
55121;DHT22;41019;48.512;9.036;2023-10-19T02:41:15;11.80;99.90
55121;DHT22;41019;48.512;9.036;2023-10-19T02:43:41;11.80;99.90
55121;DHT22;41019;48.512;9.036;2023-10-19T02:46:12;11.80;99.90
55121;DHT22;41019;48.512;9.036;2023-10-19T02:48:39;11.70;99.90
55121;DHT22;41019;48.512;9.036;2023-10-19T02:51:11;11.70;99.90
55121;DHT22;41019;48.512;9.036;2023-10-19T02:53:38;11.70;99.90
55121;DHT22;41019;48.512;9.036;2023-10-19T02:56:15;11.70;99.90
55121;DHT22;41019;48.512;9.036;2023-10-19T02:58:46;11.70;99.90
55121;DHT22;41019;48.512;9.036;2023-10-19T03:01:21;11.70;99.90
55121;DHT22;41019;48.512;9.036;2023-10-19T03:03:55;11.60;99.90
55121;DHT22;41019;48.512;9.036;2023-10-19T03:06:30;11.60;99.90
55121;DHT22;41019;48.512;9.036;2023-10-19T03:08:58;11.60;99.90
55121;DHT22;41019;48.512;9.036;2023-10-19T03:11:27;11.60;99.90
55121;DHT22;41019;48.512;9.036;2023-10-19T03:13:54;11.50;99.90
55121;DHT22;41019;48.512;9.036;2023-10-19T03:16:21;11.50;99.90
55121;DHT22;41019;48.512;9.036;2023-10-19T03:18:52;11.50;99.90
55121;DHT22;41019;48.512;9.036;2023-10-19T03:21:21;11.40;99.90
55121;DHT22;41019;48.512;9.036;2023-10-19T03:23:56;11.40;99.90
55121;DHT22;41019;48.512;9.036;2023-10-19T03:26:28;11.40;99.90
55121;DHT22;41019;48.512;9.036;2023-10-19T03:28:59;11.40;99.90
55121;DHT22;41019;48.512;9.036;2023-10-19T03:31:38;11.30;99.90
55121;DHT22;41019;48.512;9.036;2023-10-19T03:34:10;11.30;99.90
55121;DHT22;41019;48.512;9.036;2023-10-19T03:36:39;11.20;99.90
55121;DHT22;41019;48.512;9.036;2023-10-19T03:39:06;11.20;99.90
55121;DHT22;41019;48.512;9.036;2023-10-19T03:41:42;11.20;99.90
55121;DHT22;41019;48.512;9.036;2023-10-19T03:44:10;11.10;99.90
55121;DHT22;41019;48.512;9.036;2023-10-19T03:46:44;11.10;99.90
55121;DHT22;41019;48.512;9.036;2023-10-19T03:49:24;11.10;99.90
55121;DHT22;41019;48.512;9.036;2023-10-19T03:52:00;11.00;99.90
55121;DHT22;41019;48.512;9.036;2023-10-19T03:54:29;11.00;99.90
55121;DHT22;41019;48.512;9.036;2023-10-19T03:56:58;10.90;99.90
55121;DHT22;41019;48.512;9.036;2023-10-19T03:59:31;10.90;99.90
55121;DHT22;41019;48.512;9.036;2023-10-19T04:02:00;10.90;99.90
55121;DHT22;41019;48.512;9.036;2023-10-19T04:04:26;10.90;99.90
55121;DHT22;41019;48.512;9.036;2023-10-19T04:06:55;10.80;99.90
55121;DHT22;41019;48.512;9.036;2023-10-19T04:09:25;10.80;99.90
55121;DHT22;41019;48.512;9.036;2023-10-19T04:11:57;10.80;99.90
55121;DHT22;41019;48.512;9.036;2023-10-19T04:14:24;10.70;99.90
55121;DHT22;41019;48.512;9.036;2023-10-19T04:16:49;10.70;99.90
55121;DHT22;41019;48.512;9.036;2023-10-19T04:19:16;10.70;99.90
55121;DHT22;41019;48.512;9.036;2023-10-19T04:21:42;10.70;99.90
55121;DHT22;41019;48.512;9.036;2023-10-19T04:24:13;10.70;99.90
55121;DHT22;41019;48.512;9.036;2023-10-19T04:26:40;10.70;99.90
55121;DHT22;41019;48.512;9.036;2023-10-19T04:29:07;10.70;99.90
55121;DHT22;41019;48.512;9.036;2023-10-19T04:31:37;10.60;99.90
55121;DHT22;41019;48.512;9.036;2023-10-19T04:34:06;10.60;99.90
55121;DHT22;41019;48.512;9.036;2023-10-19T04:36:35;10.60;99.90
55121;DHT22;41019;48.512;9.036;2023-10-19T04:39:01;10.60;99.90
55121;DHT22;41019;48.512;9.036;2023-10-19T04:41:28;10.60;99.90
55121;DHT22;41019;48.512;9.036;2023-10-19T04:43:53;10.60;99.90
55121;DHT22;41019;48.512;9.036;2023-10-19T04:46:20;10.60;99.90
55121;DHT22;41019;48.512;9.036;2023-10-19T04:48:47;10.60;99.90
55121;DHT22;41019;48.512;9.036;2023-10-19T04:51:12;10.60;99.90
55121;DHT22;41019;48.512;9.036;2023-10-19T04:53:39;10.60;99.90
55121;DHT22;41019;48.512;9.036;2023-10-19T04:56:06;10.60;99.90
55121;DHT22;41019;48.512;9.036;2023-10-19T04:58:34;10.60;99.90
55121;DHT22;41019;48.512;9.036;2023-10-19T05:01:00;10.60;99.90
55121;DHT22;41019;48.512;9.036;2023-10-19T05:03:29;10.60;99.90
55121;DHT22;41019;48.512;9.036;2023-10-19T05:05:55;10.60;99.90
55121;DHT22;41019;48.512;9.036;2023-10-19T05:08:25;10.60;99.90
55121;DHT22;41019;48.512;9.036;2023-10-19T05:10:52;10.60;99.90
55121;DHT22;41019;48.512;9.036;2023-10-19T05:13:21;10.60;99.90
55121;DHT22;41019;48.512;9.036;2023-10-19T05:15:47;10.50;99.90
55121;DHT22;41019;48.512;9.036;2023-10-19T05:18:13;10.50;99.90
55121;DHT22;41019;48.512;9.036;2023-10-19T05:20:39;10.50;99.90
55121;DHT22;41019;48.512;9.036;2023-10-19T05:23:07;10.50;99.90
55121;DHT22;41019;48.512;9.036;2023-10-19T05:25:34;10.50;99.90
55121;DHT22;41019;48.512;9.036;2023-10-19T05:28:03;10.50;99.90
55121;DHT22;41019;48.512;9.036;2023-10-19T05:30:29;10.50;99.90
55121;DHT22;41019;48.512;9.036;2023-10-19T05:32:56;10.50;99.90
55121;DHT22;41019;48.512;9.036;2023-10-19T05:35:23;10.50;99.90
55121;DHT22;41019;48.512;9.036;2023-10-19T05:37:52;10.50;99.90
55121;DHT22;41019;48.512;9.036;2023-10-19T05:40:18;10.50;99.90
55121;DHT22;41019;48.512;9.036;2023-10-19T05:42:45;10.50;99.90
55121;DHT22;41019;48.512;9.036;2023-10-19T05:45:12;10.50;99.90
55121;DHT22;41019;48.512;9.036;2023-10-19T05:47:44;10.50;99.90
55121;DHT22;41019;48.512;9.036;2023-10-19T05:50:10;10.50;99.90
55121;DHT22;41019;48.512;9.036;2023-10-19T05:52:42;10.60;99.90
55121;DHT22;41019;48.512;9.036;2023-10-19T05:55:09;10.60;99.90
55121;DHT22;41019;48.512;9.036;2023-10-19T05:57:40;10.60;99.90
55121;DHT22;41019;48.512;9.036;2023-10-19T06:00:08;10.60;99.90
55121;DHT22;41019;48.512;9.036;2023-10-19T06:02:40;10.60;99.90
55121;DHT22;41019;48.512;9.036;2023-10-19T06:05:07;10.60;99.90
55121;DHT22;41019;48.512;9.036;2023-10-19T06:07:33;10.60;99.90
55121;DHT22;41019;48.512;9.036;2023-10-19T06:09:59;10.60;99.90
55121;DHT22;41019;48.512;9.036;2023-10-19T06:12:32;10.60;99.90
55121;DHT22;41019;48.512;9.036;2023-10-19T06:14:59;10.60;99.90
55121;DHT22;41019;48.512;9.036;2023-10-19T06:17:28;10.70;99.90
55121;DHT22;41019;48.512;9.036;2023-10-19T06:19:55;10.70;99.90
55121;DHT22;41019;48.512;9.036;2023-10-19T06:22:21;10.70;99.90
55121;DHT22;41019;48.512;9.036;2023-10-19T06:24:47;10.70;99.90
55121;DHT22;41019;48.512;9.036;2023-10-19T06:27:13;10.80;99.90
55121;DHT22;41019;48.512;9.036;2023-10-19T06:29:39;10.80;99.90
55121;DHT22;41019;48.512;9.036;2023-10-19T06:32:05;10.80;99.90
55121;DHT22;41019;48.512;9.036;2023-10-19T06:34:31;10.80;99.90
55121;DHT22;41019;48.512;9.036;2023-10-19T06:36:58;10.80;99.90
55121;DHT22;41019;48.512;9.036;2023-10-19T06:39:24;10.90;99.90
55121;DHT22;41019;48.512;9.036;2023-10-19T06:41:51;10.90;99.90
55121;DHT22;41019;48.512;9.036;2023-10-19T06:44:18;10.90;99.90
55121;DHT22;41019;48.512;9.036;2023-10-19T06:46:43;10.90;99.90
55121;DHT22;41019;48.512;9.036;2023-10-19T06:49:09;10.90;99.90
55121;DHT22;41019;48.512;9.036;2023-10-19T06:51:35;11.00;99.90
55121;DHT22;41019;48.512;9.036;2023-10-19T06:54:02;11.00;99.90
55121;DHT22;41019;48.512;9.036;2023-10-19T06:56:29;11.00;99.90
55121;DHT22;41019;48.512;9.036;2023-10-19T06:58:56;11.10;99.90
55121;DHT22;41019;48.512;9.036;2023-10-19T07:01:22;11.10;99.90
55121;DHT22;41019;48.512;9.036;2023-10-19T07:03:52;11.20;99.90
55121;DHT22;41019;48.512;9.036;2023-10-19T07:06:19;11.20;99.90
55121;DHT22;41019;48.512;9.036;2023-10-19T07:08:45;11.30;99.90
55121;DHT22;41019;48.512;9.036;2023-10-19T07:11:12;11.30;99.90
55121;DHT22;41019;48.512;9.036;2023-10-19T07:13:38;11.40;99.90
55121;DHT22;41019;48.512;9.036;2023-10-19T07:16:05;11.50;99.90
55121;DHT22;41019;48.512;9.036;2023-10-19T07:18:31;11.60;99.90
55121;DHT22;41019;48.512;9.036;2023-10-19T07:20:57;11.60;99.90
55121;DHT22;41019;48.512;9.036;2023-10-19T07:23:29;11.70;99.90
55121;DHT22;41019;48.512;9.036;2023-10-19T07:25:55;11.80;99.90
55121;DHT22;41019;48.512;9.036;2023-10-19T07:28:23;11.80;99.90
55121;DHT22;41019;48.512;9.036;2023-10-19T07:30:52;11.90;99.90
55121;DHT22;41019;48.512;9.036;2023-10-19T07:33:19;12.00;99.90
55121;DHT22;41019;48.512;9.036;2023-10-19T07:35:49;12.10;99.90
55121;DHT22;41019;48.512;9.036;2023-10-19T07:38:22;12.20;99.90
55121;DHT22;41019;48.512;9.036;2023-10-19T07:40:49;12.30;99.90
55121;DHT22;41019;48.512;9.036;2023-10-19T07:43:15;12.30;99.90
55121;DHT22;41019;48.512;9.036;2023-10-19T07:45:40;12.40;99.90
55121;DHT22;41019;48.512;9.036;2023-10-19T07:48:08;12.40;99.90
55121;DHT22;41019;48.512;9.036;2023-10-19T07:50:39;12.50;99.90
55121;DHT22;41019;48.512;9.036;2023-10-19T07:53:09;12.50;99.90
55121;DHT22;41019;48.512;9.036;2023-10-19T07:55:35;12.60;99.90
55121;DHT22;41019;48.512;9.036;2023-10-19T07:58:02;12.60;99.90
55121;DHT22;41019;48.512;9.036;2023-10-19T08:00:32;12.70;99.90
55121;DHT22;41019;48.512;9.036;2023-10-19T08:03:00;12.70;99.90
55121;DHT22;41019;48.512;9.036;2023-10-19T08:05:26;12.80;99.90
55121;DHT22;41019;48.512;9.036;2023-10-19T08:07:51;12.80;99.90
55121;DHT22;41019;48.512;9.036;2023-10-19T08:10:19;12.90;99.90
55121;DHT22;41019;48.512;9.036;2023-10-19T08:12:47;13.00;99.90
55121;DHT22;41019;48.512;9.036;2023-10-19T08:15:15;13.10;99.90
55121;DHT22;41019;48.512;9.036;2023-10-19T08:17:47;13.20;99.90
55121;DHT22;41019;48.512;9.036;2023-10-19T08:20:14;13.30;99.90
55121;DHT22;41019;48.512;9.036;2023-10-19T08:22:59;13.40;99.90
55121;DHT22;41019;48.512;9.036;2023-10-19T08:25:27;13.50;99.90
55121;DHT22;41019;48.512;9.036;2023-10-19T08:27:53;13.60;99.90
55121;DHT22;41019;48.512;9.036;2023-10-19T08:30:23;13.70;99.90
55121;DHT22;41019;48.512;9.036;2023-10-19T08:32:51;13.80;99.90
55121;DHT22;41019;48.512;9.036;2023-10-19T08:35:21;13.90;99.90
55121;DHT22;41019;48.512;9.036;2023-10-19T08:37:51;13.90;99.90
55121;DHT22;41019;48.512;9.036;2023-10-19T08:40:17;14.00;99.90
55121;DHT22;41019;48.512;9.036;2023-10-19T08:42:45;14.10;99.90
55121;DHT22;41019;48.512;9.036;2023-10-19T08:45:12;14.10;99.90
55121;DHT22;41019;48.512;9.036;2023-10-19T08:47:59;14.20;99.90
55121;DHT22;41019;48.512;9.036;2023-10-19T08:50:29;14.30;99.90
55121;DHT22;41019;48.512;9.036;2023-10-19T08:52:59;14.30;99.90
55121;DHT22;41019;48.512;9.036;2023-10-19T08:55:26;14.40;99.90
55121;DHT22;41019;48.512;9.036;2023-10-19T08:57:53;14.50;99.90
55121;DHT22;41019;48.512;9.036;2023-10-19T09:00:20;14.60;99.90
55121;DHT22;41019;48.512;9.036;2023-10-19T09:02:54;14.60;99.90
55121;DHT22;41019;48.512;9.036;2023-10-19T09:05:22;14.70;99.90
55121;DHT22;41019;48.512;9.036;2023-10-19T09:07:49;14.80;99.90
55121;DHT22;41019;48.512;9.036;2023-10-19T09:10:23;14.80;99.90
55121;DHT22;41019;48.512;9.036;2023-10-19T09:13:03;14.80;99.90
55121;DHT22;41019;48.512;9.036;2023-10-19T09:15:30;14.90;99.90
55121;DHT22;41019;48.512;9.036;2023-10-19T09:18:01;15.00;99.90
55121;DHT22;41019;48.512;9.036;2023-10-19T09:20:37;15.00;99.90
55121;DHT22;41019;48.512;9.036;2023-10-19T09:23:03;15.10;99.90
55121;DHT22;41019;48.512;9.036;2023-10-19T09:25:29;15.10;99.90
55121;DHT22;41019;48.512;9.036;2023-10-19T09:27:55;15.20;99.70
55121;DHT22;41019;48.512;9.036;2023-10-19T09:30:23;15.20;99.70
55121;DHT22;41019;48.512;9.036;2023-10-19T09:32:51;15.30;99.80
55121;DHT22;41019;48.512;9.036;2023-10-19T09:35:19;15.40;99.70
55121;DHT22;41019;48.512;9.036;2023-10-19T09:37:45;15.40;99.40
55121;DHT22;41019;48.512;9.036;2023-10-19T09:40:13;15.40;99.70
55121;DHT22;41019;48.512;9.036;2023-10-19T09:42:43;15.50;99.80
55121;DHT22;41019;48.512;9.036;2023-10-19T09:45:19;15.50;99.50
55121;DHT22;41019;48.512;9.036;2023-10-19T09:47:50;15.50;99.00
55121;DHT22;41019;48.512;9.036;2023-10-19T09:50:17;15.50;99.20
55121;DHT22;41019;48.512;9.036;2023-10-19T09:52:44;15.60;99.50
55121;DHT22;41019;48.512;9.036;2023-10-19T09:55:29;15.60;99.10
55121;DHT22;41019;48.512;9.036;2023-10-19T09:58:15;15.70;99.20
55121;DHT22;41019;48.512;9.036;2023-10-19T10:00:48;15.70;99.30
55121;DHT22;41019;48.512;9.036;2023-10-19T10:06:10;15.90;98.70
55121;DHT22;41019;48.512;9.036;2023-10-19T10:08:39;16.00;98.80
55121;DHT22;41019;48.512;9.036;2023-10-19T10:11:31;16.10;98.60
55121;DHT22;41019;48.512;9.036;2023-10-19T10:13:58;16.20;98.90
55121;DHT22;41019;48.512;9.036;2023-10-19T10:16:26;16.30;98.70
55121;DHT22;41019;48.512;9.036;2023-10-19T10:18:57;16.40;99.40
55121;DHT22;41019;48.512;9.036;2023-10-19T10:21:26;16.40;98.90
55121;DHT22;41019;48.512;9.036;2023-10-19T10:23:55;16.60;98.90
55121;DHT22;41019;48.512;9.036;2023-10-19T10:26:29;16.60;98.70
55121;DHT22;41019;48.512;9.036;2023-10-19T10:29:21;16.60;98.30
55121;DHT22;41019;48.512;9.036;2023-10-19T10:31:50;16.60;98.50
55121;DHT22;41019;48.512;9.036;2023-10-19T10:37:05;16.60;98.90
55121;DHT22;41019;48.512;9.036;2023-10-19T10:39:34;16.70;98.30
55121;DHT22;41019;48.512;9.036;2023-10-19T10:42:05;16.70;98.60
55121;DHT22;41019;48.512;9.036;2023-10-19T10:47:17;16.70;99.50
55121;DHT22;41019;48.512;9.036;2023-10-19T10:49:57;16.80;99.60
55121;DHT22;41019;48.512;9.036;2023-10-19T10:52:29;16.80;99.30
55121;DHT22;41019;48.512;9.036;2023-10-19T10:54:57;16.80;99.10
55121;DHT22;41019;48.512;9.036;2023-10-19T10:57:24;16.70;99.00
55121;DHT22;41019;48.512;9.036;2023-10-19T11:00:01;16.70;99.30
55121;DHT22;41019;48.512;9.036;2023-10-19T11:02:29;16.60;99.20
55121;DHT22;41019;48.512;9.036;2023-10-19T11:04:55;16.60;99.40
55121;DHT22;41019;48.512;9.036;2023-10-19T11:07:21;16.50;99.70
55121;DHT22;41019;48.512;9.036;2023-10-19T11:09:47;16.50;99.90
55121;DHT22;41019;48.512;9.036;2023-10-19T11:12:14;16.40;99.90
55121;DHT22;41019;48.512;9.036;2023-10-19T11:14:55;16.50;99.90
55121;DHT22;41019;48.512;9.036;2023-10-19T11:17:22;16.40;99.90
55121;DHT22;41019;48.512;9.036;2023-10-19T11:19:59;16.40;99.90
55121;DHT22;41019;48.512;9.036;2023-10-19T11:22:26;16.40;99.90
55121;DHT22;41019;48.512;9.036;2023-10-19T11:24:53;16.40;99.90
55121;DHT22;41019;48.512;9.036;2023-10-19T11:27:25;16.40;99.90
55121;DHT22;41019;48.512;9.036;2023-10-19T11:29:57;16.40;99.90
55121;DHT22;41019;48.512;9.036;2023-10-19T11:32:23;16.50;99.90
55121;DHT22;41019;48.512;9.036;2023-10-19T11:34:57;16.50;99.90
55121;DHT22;41019;48.512;9.036;2023-10-19T11:37:22;16.60;99.90
55121;DHT22;41019;48.512;9.036;2023-10-19T11:39:48;16.60;99.90
55121;DHT22;41019;48.512;9.036;2023-10-19T11:42:18;16.60;99.90
55121;DHT22;41019;48.512;9.036;2023-10-19T11:44:44;16.60;99.90
55121;DHT22;41019;48.512;9.036;2023-10-19T11:47:11;16.60;99.90
55121;DHT22;41019;48.512;9.036;2023-10-19T11:49:37;16.60;99.90
55121;DHT22;41019;48.512;9.036;2023-10-19T11:52:06;16.60;99.90
55121;DHT22;41019;48.512;9.036;2023-10-19T11:54:35;16.60;99.90
55121;DHT22;41019;48.512;9.036;2023-10-19T11:57:01;16.60;99.90
55121;DHT22;41019;48.512;9.036;2023-10-19T11:59:28;16.50;99.90
55121;DHT22;41019;48.512;9.036;2023-10-19T12:01:57;16.40;99.90
55121;DHT22;41019;48.512;9.036;2023-10-19T12:04:24;16.40;99.90
55121;DHT22;41019;48.512;9.036;2023-10-19T12:06:51;16.40;99.90
55121;DHT22;41019;48.512;9.036;2023-10-19T12:09:17;16.40;99.90
55121;DHT22;41019;48.512;9.036;2023-10-19T12:11:43;16.40;99.90
55121;DHT22;41019;48.512;9.036;2023-10-19T12:14:10;16.40;99.90
55121;DHT22;41019;48.512;9.036;2023-10-19T12:16:41;16.40;99.90
55121;DHT22;41019;48.512;9.036;2023-10-19T12:19:07;16.40;99.90
55121;DHT22;41019;48.512;9.036;2023-10-19T12:21:36;16.40;99.90
55121;DHT22;41019;48.512;9.036;2023-10-19T12:24:03;16.40;99.90
55121;DHT22;41019;48.512;9.036;2023-10-19T12:26:30;16.50;99.90
55121;DHT22;41019;48.512;9.036;2023-10-19T12:28:56;16.50;99.90
55121;DHT22;41019;48.512;9.036;2023-10-19T12:31:22;16.60;99.90
55121;DHT22;41019;48.512;9.036;2023-10-19T12:33:49;16.70;99.90
55121;DHT22;41019;48.512;9.036;2023-10-19T12:36:15;16.70;99.90
55121;DHT22;41019;48.512;9.036;2023-10-19T12:38:54;16.80;99.90
55121;DHT22;41019;48.512;9.036;2023-10-19T12:41:23;16.80;99.90
55121;DHT22;41019;48.512;9.036;2023-10-19T12:43:53;16.90;99.90
55121;DHT22;41019;48.512;9.036;2023-10-19T12:46:33;16.90;99.90
55121;DHT22;41019;48.512;9.036;2023-10-19T12:49:04;16.90;99.90
55121;DHT22;41019;48.512;9.036;2023-10-19T12:51:34;16.90;99.90
55121;DHT22;41019;48.512;9.036;2023-10-19T12:54:00;16.90;99.90
55121;DHT22;41019;48.512;9.036;2023-10-19T12:56:29;16.90;99.90
55121;DHT22;41019;48.512;9.036;2023-10-19T12:58:55;17.00;99.90
55121;DHT22;41019;48.512;9.036;2023-10-19T13:01:21;17.10;99.90
55121;DHT22;41019;48.512;9.036;2023-10-19T13:03:50;17.30;99.90
55121;DHT22;41019;48.512;9.036;2023-10-19T13:06:17;17.40;99.90
55121;DHT22;41019;48.512;9.036;2023-10-19T13:08:43;17.60;99.90
55121;DHT22;41019;48.512;9.036;2023-10-19T13:11:10;17.60;99.90
55121;DHT22;41019;48.512;9.036;2023-10-19T13:13:36;17.70;99.90
55121;DHT22;41019;48.512;9.036;2023-10-19T13:16:02;17.70;99.90
55121;DHT22;41019;48.512;9.036;2023-10-19T13:18:32;17.70;99.90
55121;DHT22;41019;48.512;9.036;2023-10-19T13:21:00;17.70;99.90
55121;DHT22;41019;48.512;9.036;2023-10-19T13:23:32;17.70;99.90
55121;DHT22;41019;48.512;9.036;2023-10-19T13:26:04;17.70;99.90
55121;DHT22;41019;48.512;9.036;2023-10-19T13:28:33;17.70;99.90
55121;DHT22;41019;48.512;9.036;2023-10-19T13:30:59;17.60;99.90
55121;DHT22;41019;48.512;9.036;2023-10-19T13:33:25;17.60;99.90
55121;DHT22;41019;48.512;9.036;2023-10-19T13:35:52;17.60;99.90
55121;DHT22;41019;48.512;9.036;2023-10-19T13:38:19;17.50;99.90
55121;DHT22;41019;48.512;9.036;2023-10-19T13:40:48;17.60;99.90
55121;DHT22;41019;48.512;9.036;2023-10-19T13:43:16;17.60;99.90
55121;DHT22;41019;48.512;9.036;2023-10-19T13:45:45;17.60;99.90
55121;DHT22;41019;48.512;9.036;2023-10-19T13:48:12;17.60;99.90
55121;DHT22;41019;48.512;9.036;2023-10-19T13:50:44;17.60;99.90
55121;DHT22;41019;48.512;9.036;2023-10-19T13:53:14;17.60;99.90
55121;DHT22;41019;48.512;9.036;2023-10-19T13:55:41;17.60;99.90
55121;DHT22;41019;48.512;9.036;2023-10-19T13:58:07;17.60;99.90
55121;DHT22;41019;48.512;9.036;2023-10-19T14:00:33;17.70;99.90
55121;DHT22;41019;48.512;9.036;2023-10-19T14:02:59;17.70;99.90
55121;DHT22;41019;48.512;9.036;2023-10-19T14:05:27;17.60;99.90
55121;DHT22;41019;48.512;9.036;2023-10-19T14:07:53;17.70;99.90
55121;DHT22;41019;48.512;9.036;2023-10-19T14:10:20;17.60;99.90
55121;DHT22;41019;48.512;9.036;2023-10-19T14:12:48;17.60;99.90
55121;DHT22;41019;48.512;9.036;2023-10-19T14:15:19;17.60;99.90
55121;DHT22;41019;48.512;9.036;2023-10-19T14:17:47;17.50;99.90
55121;DHT22;41019;48.512;9.036;2023-10-19T14:20:17;17.50;99.90
55121;DHT22;41019;48.512;9.036;2023-10-19T14:22:45;17.50;99.90
55121;DHT22;41019;48.512;9.036;2023-10-19T14:25:13;17.40;99.90
55121;DHT22;41019;48.512;9.036;2023-10-19T14:27:41;17.40;99.90
55121;DHT22;41019;48.512;9.036;2023-10-19T14:30:08;17.40;99.90
55121;DHT22;41019;48.512;9.036;2023-10-19T14:32:44;17.40;99.90
55121;DHT22;41019;48.512;9.036;2023-10-19T14:35:14;17.30;99.90
55121;DHT22;41019;48.512;9.036;2023-10-19T14:37:47;17.30;99.90
55121;DHT22;41019;48.512;9.036;2023-10-19T14:40:19;17.30;99.90
55121;DHT22;41019;48.512;9.036;2023-10-19T14:42:51;17.20;99.90
55121;DHT22;41019;48.512;9.036;2023-10-19T14:45:20;17.20;99.90
55121;DHT22;41019;48.512;9.036;2023-10-19T14:47:48;17.20;99.90
55121;DHT22;41019;48.512;9.036;2023-10-19T14:50:15;17.20;99.90
55121;DHT22;41019;48.512;9.036;2023-10-19T14:52:41;17.20;99.90
55121;DHT22;41019;48.512;9.036;2023-10-19T14:55:09;17.20;99.90
55121;DHT22;41019;48.512;9.036;2023-10-19T14:57:36;17.20;99.90
55121;DHT22;41019;48.512;9.036;2023-10-19T15:00:07;17.30;99.90
55121;DHT22;41019;48.512;9.036;2023-10-19T15:02:53;17.30;99.90
55121;DHT22;41019;48.512;9.036;2023-10-19T15:05:22;17.40;99.90
55121;DHT22;41019;48.512;9.036;2023-10-19T15:07:49;17.40;99.90
55121;DHT22;41019;48.512;9.036;2023-10-19T15:10:19;17.40;99.90
55121;DHT22;41019;48.512;9.036;2023-10-19T15:12:45;17.40;99.90
55121;DHT22;41019;48.512;9.036;2023-10-19T15:15:11;17.50;99.90
55121;DHT22;41019;48.512;9.036;2023-10-19T15:17:38;17.50;99.90
55121;DHT22;41019;48.512;9.036;2023-10-19T15:20:07;17.50;99.90
55121;DHT22;41019;48.512;9.036;2023-10-19T15:22:34;17.50;99.90
55121;DHT22;41019;48.512;9.036;2023-10-19T15:25:00;17.50;99.90
55121;DHT22;41019;48.512;9.036;2023-10-19T15:27:26;17.50;99.90
55121;DHT22;41019;48.512;9.036;2023-10-19T15:29:57;17.50;99.90
55121;DHT22;41019;48.512;9.036;2023-10-19T15:32:23;17.50;99.90
55121;DHT22;41019;48.512;9.036;2023-10-19T15:34:50;17.50;99.90
55121;DHT22;41019;48.512;9.036;2023-10-19T15:37:18;17.50;99.90
55121;DHT22;41019;48.512;9.036;2023-10-19T15:39:43;17.40;99.90
55121;DHT22;41019;48.512;9.036;2023-10-19T15:42:10;17.40;99.90
55121;DHT22;41019;48.512;9.036;2023-10-19T15:44:37;17.30;99.90
55121;DHT22;41019;48.512;9.036;2023-10-19T15:47:04;17.30;99.90
55121;DHT22;41019;48.512;9.036;2023-10-19T15:49:36;17.30;99.90
55121;DHT22;41019;48.512;9.036;2023-10-19T15:52:03;17.20;99.90
55121;DHT22;41019;48.512;9.036;2023-10-19T15:54:29;17.20;99.90